Time;durP1;ratioP1;P1;durP2;ratioP2;P2;SDS_P1;SDS_P2;PMS_P1;PMS_P2;Temp;Humidity;BMP_temperature;BMP_pressure;BME280_temperature;BME280_humidity;BME280_pressure;Samples;Min_cycle;Max_cycle;Signal;HPM_P1;HPM_P2
2023/01/31 00:01:15;;;;;;;;;25.00;20.75;;;;;6.37;65.70;101964.09;5034180;28;45836;-70
2023/01/31 00:03:44;;;;;;;;;20.25;20.00;;;;;6.36;65.60;101970.94;5035409;28;45559;-70
2023/01/31 00:06:34;;;;;;;;;40.50;39.00;;;;;6.37;65.66;101966.66;5026793;28;45466;-70
2023/01/31 00:09:00;;;;;;;;;29.25;27.25;;;;;6.32;65.94;101961.13;5021415;28;45456;-70
2023/01/31 00:11:28;;;;;;;;;23.50;21.25;;;;;6.29;66.08;101952.28;5035971;28;45418;-70
2023/01/31 00:13:57;;;;;;;;;35.75;34.75;;;;;6.35;65.44;101965.66;5021553;28;45547;-70
2023/01/31 00:16:23;;;;;;;;;25.75;22.75;;;;;6.35;66.18;101966.56;5029559;28;46537;-69
2023/01/31 00:18:50;;;;;;;;;24.25;21.50;;;;;6.34;65.77;101956.97;5030229;28;45363;-70
2023/01/31 00:21:24;;;;;;;;;12.00;10.00;;;;;6.28;66.10;101951.34;5039216;28;45384;-70
2023/01/31 00:23:51;;;;;;;;;42.00;36.50;;;;;6.30;66.87;101961.84;5027786;28;45555;-70
2023/01/31 00:26:21;;;;;;;;;34.75;27.75;;;;;6.24;67.54;101951.03;5024961;28;45643;-70
2023/01/31 00:28:48;;;;;;;;;64.25;50.50;;;;;6.18;67.98;101954.97;5032913;28;45305;-70
2023/01/31 00:31:16;;;;;;;;;46.00;40.00;;;;;6.06;68.54;101943.75;5022853;28;45476;-70
2023/01/31 00:33:43;;;;;;;;;49.75;42.00;;;;;6.00;68.26;101937.25;5031545;28;45394;-70
2023/01/31 00:36:12;;;;;;;;;30.00;26.75;;;;;6.12;67.87;101959.75;5035066;28;46044;-70
2023/01/31 00:38:38;;;;;;;;;33.00;29.00;;;;;6.14;67.83;101952.06;5030983;28;45545;-70
2023/01/31 00:41:05;;;;;;;;;27.75;26.00;;;;;6.14;67.81;101952.06;5028816;28;45471;-70
2023/01/31 00:43:31;;;;;;;;;24.50;20.50;;;;;6.14;67.66;101941.69;5037819;28;45488;-70
2023/01/31 00:45:57;;;;;;;;;19.75;16.75;;;;;6.16;68.19;101938.41;5033007;28;45574;-70
2023/01/31 00:48:23;;;;;;;;;17.75;16.25;;;;;6.18;66.82;101944.59;5024936;28;45427;-70
2023/01/31 00:50:49;;;;;;;;;11.75;11.25;;;;;6.13;67.03;101934.72;5027796;28;45689;-70
2023/01/31 00:53:17;;;;;;;;;26.00;21.50;;;;;6.02;67.15;101925.28;5030465;28;45375;-70
2023/01/31 00:55:43;;;;;;;;;12.50;12.00;;;;;6.01;67.18;101921.78;5036099;28;45468;-70
2023/01/31 00:58:08;;;;;;;;;27.25;25.00;;;;;6.05;67.25;101944.56;5033812;28;45799;-70
2023/01/31 01:00:34;;;;;;;;;26.25;22.25;;;;;6.02;67.69;101949.50;5030384;28;45521;-70
2023/01/31 01:02:59;;;;;;;;;23.50;21.00;;;;;5.72;69.28;101907.59;5032470;28;45495;-71
2023/01/31 01:05:25;;;;;;;;;22.75;20.25;;;;;5.82;68.32;101919.53;5031346;28;45490;-70
2023/01/31 01:07:50;;;;;;;;;15.75;14.25;;;;;5.98;67.89;101940.59;5030989;28;45497;-70
2023/01/31 01:10:16;;;;;;;;;16.50;15.50;;;;;6.02;67.91;101938.25;5035927;28;45465;-70
2023/01/31 01:12:41;;;;;;;;;15.50;12.00;;;;;6.06;67.54;101933.38;5034954;28;45397;-70
2023/01/31 01:15:07;;;;;;;;;14.00;12.00;;;;;5.92;66.92;101896.06;5031433;28;45523;-71
2023/01/31 01:17:33;;;;;;;;;14.00;11.50;;;;;6.06;66.97;101915.22;5034432;28;45463;-70
2023/01/31 01:20:02;;;;;;;;;14.00;11.75;;;;;6.16;66.36;101922.84;5036465;28;45324;-70
2023/01/31 01:22:28;;;;;;;;;20.25;15.00;;;;;6.06;66.34;101891.88;5028359;28;45392;-71
2023/01/31 01:24:54;;;;;;;;;25.75;20.00;;;;;6.26;66.63;101910.50;5032322;28;45482;-72
2023/01/31 01:27:19;;;;;;;;;15.00;13.50;;;;;6.29;66.77;101915.94;5033374;28;45479;-71
2023/01/31 01:29:45;;;;;;;;;14.25;12.00;;;;;6.31;66.46;101909.16;5025633;28;45506;-71
2023/01/31 01:32:10;;;;;;;;;16.25;13.50;;;;;6.29;66.51;101914.22;5035898;28;45452;-71
2023/01/31 01:34:36;;;;;;;;;15.00;15.00;;;;;6.11;66.89;101874.94;5027855;28;46080;-70
2023/01/31 01:37:10;;;;;;;;;22.75;20.75;;;;;6.26;66.67;101916.59;5026228;28;45595;-70
2023/01/31 01:39:39;;;;;;;;;21.25;15.75;;;;;6.31;66.51;101923.03;5032704;28;45502;-71
2023/01/31 01:42:05;;;;;;;;;11.75;11.75;;;;;6.22;66.53;101898.13;5032998;28;45522;-70
2023/01/31 01:44:49;;;;;;;;;15.25;14.50;;;;;6.39;66.20;101913.16;5030026;28;46052;-70
2023/01/31 01:47:35;;;;;;;;;13.50;12.00;;;;;6.43;66.27;101912.59;5030294;28;45415;-71
2023/01/31 01:50:24;;;;;;;;;11.50;10.00;;;;;6.43;66.32;101911.69;5036501;28;45473;-70
2023/01/31 01:52:59;;;;;;;;;12.75;11.75;;;;;6.46;66.20;101911.88;5026531;28;45519;-71
2023/01/31 01:55:34;;;;;;;;;15.25;12.25;;;;;6.49;66.26;101909.50;5032722;28;45451;-70
2023/01/31 01:58:10;;;;;;;;;11.50;11.50;;;;;6.41;66.09;101893.41;5017708;28;45411;-71
2023/01/31 02:00:36;;;;;;;;;13.75;12.25;;;;;6.50;66.37;101900.91;5031753;28;45391;-70
2023/01/31 02:03:05;;;;;;;;;13.25;11.25;;;;;6.51;66.46;101900.13;5025014;28;45451;-70
2023/01/31 02:05:41;;;;;;;;;12.50;12.50;;;;;6.49;65.92;101901.72;5030924;28;45478;-71
2023/01/31 02:08:07;;;;;;;;;11.00;11.00;;;;;6.33;65.98;101879.00;5027107;28;45217;-70
2023/01/31 02:10:48;;;;;;;;;11.00;10.00;;;;;6.25;66.91;101881.06;5036023;28;45317;-70
2023/01/31 02:13:15;;;;;;;;;12.50;11.50;;;;;6.44;66.71;101910.88;5029685;28;45609;-70
2023/01/31 02:15:41;;;;;;;;;12.00;11.00;;;;;6.35;67.91;101912.06;5022737;28;46495;-70
2023/01/31 02:18:08;;;;;;;;;11.25;10.50;;;;;6.32;67.65;101897.97;5032033;28;46034;-70
2023/01/31 02:20:42;;;;;;;;;13.75;12.25;;;;;6.31;67.94;101906.56;5032355;28;45529;-70
2023/01/31 02:23:48;;;;;;;;;15.50;11.75;;;;;6.25;68.21;101904.44;5026946;28;45576;-71
2023/01/31 02:27:06;;;;;;;;;16.25;15.25;;;;;6.26;68.42;101892.34;5020256;28;46370;-71
2023/01/31 02:30:09;;;;;;;;;13.50;11.25;;;;;6.25;68.11;101895.75;5024646;28;45527;-70
2023/01/31 02:33:15;;;;;;;;;14.00;11.00;;;;;6.29;67.84;101895.19;5028948;28;45421;-71
2023/01/31 02:36:21;;;;;;;;;11.00;10.00;;;;;6.31;67.32;101885.78;4989437;28;45558;-70
2023/01/31 02:39:11;;;;;;;;;11.75;11.50;;;;;6.29;67.72;101895.19;5029188;28;47713;-70
2023/01/31 02:41:55;;;;;;;;;11.25;10.25;;;;;6.29;67.80;101898.66;5028770;28;45316;-71
2023/01/31 02:44:58;;;;;;;;;11.00;10.75;;;;;6.31;67.42;101890.97;5035811;28;45413;-70
2023/01/31 02:48:03;;;;;;;;;11.25;10.50;;;;;6.32;67.56;101888.47;5016689;28;45491;-70
2023/01/31 02:51:07;;;;;;;;;17.25;12.00;;;;;6.30;67.86;101884.88;5030980;28;46655;-70
2023/01/31 02:53:36;;;;;;;;;15.00;14.25;;;;;6.29;68.08;101882.19;5023229;28;45439;-70
2023/01/31 02:56:13;;;;;;;;;12.75;11.50;;;;;6.29;68.01;101871.81;5014714;28;45357;-70
2023/01/31 02:58:42;;;;;;;;;12.75;11.00;;;;;6.33;67.57;101873.81;5029685;28;45403;-70
2023/01/31 03:01:16;;;;;;;;;11.00;8.00;;;;;6.37;67.41;101873.22;5030114;28;46106;-71
2023/01/31 03:03:42;;;;;;;;;10.75;10.75;;;;;6.33;67.97;101873.81;5027216;28;45546;-71
2023/01/31 03:06:08;;;;;;;;;12.00;11.50;;;;;6.34;68.06;101885.97;5029093;28;45455;-69
2023/01/31 03:08:35;;;;;;;;;12.25;11.00;;;;;6.29;68.67;101887.38;5032838;28;45590;-70
2023/01/31 03:11:05;;;;;;;;;11.75;11.75;;;;;6.26;68.59;101888.06;5029229;28;46063;-70
2023/01/31 03:13:33;;;;;;;;;14.00;11.25;;;;;6.25;68.75;101890.56;5030141;28;45229;-71
2023/01/31 03:19:14;;;;;;;;;15.00;14.00;;;;;6.25;68.63;101885.38;5030030;28;45381;-71
2023/01/31 03:21:54;;;;;;;;;13.25;12.00;;;;;6.28;68.40;101885.56;5026741;28;46059;-70
2023/01/31 03:24:25;;;;;;;;;14.50;13.25;;;;;6.15;68.31;101858.78;5032101;28;45569;-70
2023/01/31 03:26:52;;;;;;;;;12.75;11.50;;;;;6.23;68.32;101874.88;5024309;28;45308;-70
2023/01/31 03:29:18;;;;;;;;;11.50;10.25;;;;;6.29;68.04;101877.00;5024998;28;45871;-70
2023/01/31 03:31:53;;;;;;;;;12.00;11.75;;;;;6.29;68.32;101874.41;5031539;28;46328;-70
2023/01/31 03:34:19;;;;;;;;;16.00;12.00;;;;;6.29;67.80;101870.09;5030205;28;45591;-70
2023/01/31 03:36:56;;;;;;;;;11.75;10.50;;;;;6.35;67.34;101875.72;5023723;28;45260;-70
2023/01/31 03:39:36;;;;;;;;;30.75;28.00;;;;;6.38;67.74;101872.41;5031086;28;45531;-70
2023/01/31 03:42:06;;;;;;;;;46.75;37.00;;;;;6.40;68.31;101876.03;5029477;28;45388;-70
2023/01/31 03:44:54;;;;;;;;;28.00;23.75;;;;;6.26;68.08;101853.44;5018467;28;45473;-70
2023/01/31 03:47:27;;;;;;;;;26.00;25.00;;;;;6.45;67.92;101879.84;5027295;28;45494;-70
2023/01/31 03:50:00;;;;;;;;;30.25;26.00;;;;;6.42;67.80;101878.72;5024796;28;45595;-70
2023/01/31 03:52:31;;;;;;;;;24.50;19.25;;;;;6.42;68.74;101881.31;5032611;28;45510;-71
2023/01/31 03:55:06;;;;;;;;;15.50;12.50;;;;;6.42;68.50;101886.50;5033092;28;45466;-70
2023/01/31 03:57:39;;;;;;;;;24.25;20.50;;;;;6.40;68.49;101880.31;5026994;28;46324;-71
2023/01/31 04:00:08;;;;;;;;;15.00;12.00;;;;;6.24;68.65;101866.28;5027779;28;45353;-71
2023/01/31 04:02:36;;;;;;;;;11.50;11.00;;;;;6.38;68.88;101893.19;5037555;28;46252;-70
2023/01/31 04:05:15;;;;;;;;;12.00;11.00;;;;;6.37;68.97;101888.81;5030421;28;45339;-71
2023/01/31 04:07:41;;;;;;;;;12.75;9.50;;;;;6.21;68.66;101858.31;5028743;28;45378;-70
2023/01/31 04:10:12;;;;;;;;;8.75;8.25;;;;;6.36;68.50;101876.59;5029904;28;45521;-70
2023/01/31 04:12:38;;;;;;;;;11.75;10.75;;;;;6.40;68.72;101891.59;5035481;28;46034;-71
2023/01/31 04:15:05;;;;;;;;;17.25;16.25;;;;;6.37;68.52;101874.13;5026560;28;45396;-71
2023/01/31 04:17:32;;;;;;;;;12.75;11.00;;;;;6.42;68.72;101882.22;5026971;28;45516;-70
2023/01/31 04:19:58;;;;;;;;;17.00;14.50;;;;;6.26;68.55;101861.22;5036746;28;45495;-71
2023/01/31 04:22:23;;;;;;;;;12.75;12.75;;;;;6.42;68.57;101895.19;5037244;28;45943;-70
2023/01/31 04:24:49;;;;;;;;;14.50;12.50;;;;;6.42;69.08;101890.00;5031297;28;45606;-70
2023/01/31 04:27:14;;;;;;;;;16.50;13.00;;;;;6.44;68.54;101892.72;5028535;28;45340;-71
2023/01/31 04:29:40;;;;;;;;;15.25;11.50;;;;;6.45;68.48;101895.41;5034176;28;45241;-70
2023/01/31 04:32:05;;;;;;;;;9.75;8.50;;;;;6.29;68.54;101861.44;5028612;28;45815;-70
2023/01/31 04:34:33;;;;;;;;;11.00;8.00;;;;;6.46;68.33;101886.81;5038610;28;45461;-70
2023/01/31 04:36:58;;;;;;;;;12.00;11.25;;;;;6.23;68.73;101846.34;5033324;28;45471;-69
2023/01/31 04:39:24;;;;;;;;;8.50;8.00;;;;;6.48;68.47;101890.41;5033113;28;45566;-70
2023/01/31 04:41:49;;;;;;;;;13.00;12.00;;;;;6.43;68.45;101881.44;5030555;28;45470;-70
2023/01/31 04:44:15;;;;;;;;;16.50;16.00;;;;;6.50;68.55;101890.53;5037049;28;45528;-71
2023/01/31 04:46:41;;;;;;;;;20.75;17.50;;;;;6.36;67.98;101874.00;5026990;28;45479;-70
2023/01/31 04:49:07;;;;;;;;;19.25;17.50;;;;;6.35;67.96;101865.34;5025744;28;45468;-70
2023/01/31 04:51:33;;;;;;;;;16.00;15.75;;;;;6.44;68.13;101888.41;5037014;28;45496;-70
2023/01/31 04:53:59;;;;;;;;;12.25;12.25;;;;;6.25;68.24;101870.69;5030885;28;45384;-70
2023/01/31 04:56:25;;;;;;;;;11.00;11.00;;;;;6.17;68.27;101857.19;5026301;28;45478;-70
2023/01/31 04:58:50;;;;;;;;;8.75;8.50;;;;;6.36;68.43;101894.78;5032468;28;45562;-70
2023/01/31 05:01:16;;;;;;;;;22.50;20.50;;;;;6.36;68.42;101895.66;5031621;28;45901;-71
2023/01/31 05:03:41;;;;;;;;;12.00;11.50;;;;;5.97;69.02;101827.28;5030311;28;45316;-70
2023/01/31 05:06:07;;;;;;;;;13.00;11.00;;;;;6.32;69.37;101891.06;5028634;28;45490;-70
2023/01/31 05:08:32;;;;;;;;;10.00;8.50;;;;;5.95;69.90;101834.06;5028921;28;45328;-70
2023/01/31 05:11:02;;;;;;;;;12.00;11.50;;;;;6.28;70.14;101899.44;5034572;28;45592;-70
2023/01/31 05:13:31;;;;;;;;;11.25;11.00;;;;;5.96;69.82;101845.34;5030372;28;45483;-70
2023/01/31 05:15:57;;;;;;;;;13.75;11.00;;;;;6.21;69.62;101886.84;5011181;28;45392;-71
2023/01/31 05:18:23;;;;;;;;;12.00;11.50;;;;;6.26;70.03;101895.84;5028043;28;45375;-71
2023/01/31 05:20:49;;;;;;;;;16.00;12.00;;;;;6.21;70.15;101904.09;5032628;28;45498;-70
2023/01/31 05:23:16;;;;;;;;;20.25;17.25;;;;;6.15;70.91;101895.09;5024171;28;45204;-71
2023/01/31 05:25:42;;;;;;;;;15.00;12.75;;;;;6.15;70.17;101889.91;5011769;28;45344;-70
2023/01/31 05:28:07;;;;;;;;;16.50;13.25;;;;;6.16;70.18;101896.88;5034352;28;45525;-70
2023/01/31 05:30:33;;;;;;;;;15.75;11.50;;;;;5.99;70.00;101866.31;5028391;28;46067;-70
2023/01/31 05:32:59;;;;;;;;;12.50;12.00;;;;;5.87;70.12;101849.84;5031666;28;45565;-71
2023/01/31 05:35:24;;;;;;;;;15.25;12.25;;;;;6.16;70.12;101894.31;5013203;28;45622;-70
2023/01/31 05:37:55;;;;;;;;;14.50;12.25;;;;;6.15;70.18;101891.63;5032059;28;45441;-70
2023/01/31 05:40:21;;;;;;;;;15.50;11.75;;;;;6.01;70.12;101874.16;5028307;28;45402;-70
2023/01/31 05:42:59;;;;;;;;;19.25;16.00;;;;;6.16;70.15;101896.00;5036317;28;45426;-70
2023/01/31 05:45:25;;;;;;;;;13.00;12.00;;;;;6.07;69.80;101884.97;5028856;28;45419;-70
2023/01/31 05:47:52;;;;;;;;;11.25;10.25;;;;;6.13;69.86;101896.69;5029805;28;45578;-70
2023/01/31 05:50:18;;;;;;;;;14.75;11.25;;;;;6.16;69.67;101902.09;5025571;28;46382;-70
2023/01/31 05:52:49;;;;;;;;;14.50;10.25;;;;;5.89;69.62;101853.44;5028942;28;45399;-70
2023/01/31 05:55:15;;;;;;;;;22.75;20.50;;;;;6.20;69.34;101899.72;5028407;28;45378;-70
2023/01/31 05:57:40;;;;;;;;;21.00;18.75;;;;;6.14;69.83;101882.91;5029813;28;45380;-70
2023/01/31 06:00:09;;;;;;;;;16.50;16.25;;;;;6.22;69.60;101895.53;5034876;28;46250;-70
2023/01/31 06:02:34;;;;;;;;;30.50;27.75;;;;;6.18;69.89;101895.31;5017877;28;45451;-70
2023/01/31 06:05:00;;;;;;;;;115.33;87.33;;;;;6.12;70.33;101900.06;5031341;28;45512;-70
2023/01/31 06:07:26;;;;;;;;;185.75;146.75;;;;;6.08;70.56;101892.88;5028428;28;45516;-70
2023/01/31 06:09:51;;;;;;;;;331.00;253.00;;;;;5.92;70.42;101867.53;5033630;28;45994;-71
2023/01/31 06:12:19;;;;;;;;;71.75;53.50;;;;;6.11;69.88;101892.22;5032353;28;45339;-70
2023/01/31 06:14:45;;;;;;;;;89.75;64.75;;;;;6.04;69.49;101870.09;5036228;28;45498;-70
2023/01/31 06:17:11;;;;;;;;;125.33;93.00;;;;;6.16;69.82;101896.00;5027658;28;45367;-70
2023/01/31 06:19:37;;;;;;;;;90.00;66.00;;;;;6.21;69.99;101893.72;5035185;28;46066;-70
2023/01/31 06:22:04;;;;;;;;;79.50;60.50;;;;;6.22;69.74;101892.94;5034574;28;45486;-70
2023/01/31 06:24:30;;;;;;;;;72.25;52.25;;;;;6.23;69.78;101902.50;5036819;28;45362;-70
2023/01/31 06:26:55;;;;;;;;;65.75;51.25;;;;;5.95;69.99;101847.03;5037060;28;45499;-70
2023/01/31 06:29:21;;;;;;;;;47.75;38.50;;;;;6.25;69.94;101887.97;5036612;28;45502;-70
2023/01/31 06:31:46;;;;;;;;;51.00;43.00;;;;;6.29;69.86;101900.38;5036044;28;45239;-70
2023/01/31 06:34:12;;;;;;;;;82.67;65.67;;;;;6.28;69.81;101899.44;5036793;28;45457;-70
2023/01/31 06:36:38;;;;;;;;;16.50;15.50;;;;;6.28;69.63;101896.84;5034851;28;45468;-70
2023/01/31 06:39:03;;;;;;;;;12.00;12.00;;;;;6.30;69.74;101904.75;5034711;28;45496;-70
2023/01/31 06:41:29;;;;;;;;;16.50;12.00;;;;;6.31;69.32;101907.44;5035593;28;45649;-70
2023/01/31 06:43:55;;;;;;;;;15.75;11.00;;;;;6.32;69.41;101913.53;5035296;28;45561;-71
2023/01/31 06:46:21;;;;;;;;;14.25;11.75;;;;;6.29;69.68;101913.34;5035231;28;45399;-71
2023/01/31 06:48:49;;;;;;;;;13.00;11.25;;;;;6.09;69.56;101878.22;5037617;28;46200;-70
2023/01/31 06:51:15;;;;;;;;;11.75;10.00;;;;;6.25;69.24;101912.22;5033650;28;45633;-71
2023/01/31 06:53:41;;;;;;;;;16.75;12.75;;;;;6.23;69.76;101912.88;5035115;28;45548;-71
2023/01/31 06:56:07;;;;;;;;;15.25;12.00;;;;;6.24;70.10;101922.47;5031455;28;45477;-71
2023/01/31 06:58:33;;;;;;;;;13.50;12.00;;;;;6.25;69.93;101921.72;5034805;28;46236;-71
2023/01/31 07:01:12;;;;;;;;;25.50;21.75;;;;;6.21;70.20;101915.41;5034992;28;45376;-71
2023/01/31 07:03:38;;;;;;;;;29.50;24.75;;;;;6.26;70.11;101921.78;5033950;28;45499;-71
2023/01/31 07:06:05;;;;;;;;;23.75;21.50;;;;;6.12;70.34;101905.25;5017095;28;45432;-71
2023/01/31 07:08:34;;;;;;;;;57.75;42.25;;;;;6.24;70.33;101922.47;5033591;28;46182;-71
2023/01/31 07:11:02;;;;;;;;;30.00;27.25;;;;;6.21;70.89;101930.97;5034715;28;45566;-71
2023/01/31 07:13:33;;;;;;;;;25.00;21.25;;;;;6.22;71.09;101939.66;5032918;28;45459;-71
2023/01/31 07:16:02;;;;;;;;;27.75;25.00;;;;;6.22;70.36;101931.84;5036597;28;45435;-71
2023/01/31 07:18:27;;;;;;;;;22.25;20.25;;;;;6.05;70.65;101910.84;5036118;28;46187;-72
2023/01/31 07:20:53;;;;;;;;;14.50;10.00;;;;;6.26;70.10;101944.25;5036233;28;45645;-71
2023/01/31 07:23:18;;;;;;;;;12.75;11.00;;;;;6.29;69.65;101955.75;5031306;28;45336;-70
2023/01/31 07:25:44;;;;;;;;;23.00;21.00;;;;;6.12;69.94;101918.22;5023546;28;45364;-71
2023/01/31 07:28:10;;;;;;;;;22.25;19.25;;;;;6.29;69.67;101945.38;5034862;28;45295;-71
2023/01/31 07:30:36;;;;;;;;;14.75;13.50;;;;;6.32;69.39;101945.56;5034732;28;45570;-71
2023/01/31 07:33:01;;;;;;;;;22.50;20.25;;;;;6.37;70.10;101956.28;5034991;28;45431;-71
2023/01/31 07:35:28;;;;;;;;;25.00;21.50;;;;;6.11;70.16;101916.44;5037998;28;45394;-71
2023/01/31 07:38:00;;;;;;;;;22.75;21.50;;;;;6.39;69.67;101952.09;5039004;28;45490;-70
2023/01/31 07:40:26;;;;;;;;;20.25;18.50;;;;;6.43;69.89;101954.13;5039772;28;45294;-70
2023/01/31 07:42:59;;;;;;;;;44.25;39.00;;;;;6.49;70.08;101962.31;5039363;28;45467;-70
2023/01/31 07:45:25;;;;;;;;;35.00;32.75;;;;;6.53;70.08;101961.75;5039494;28;45509;-70
2023/01/31 07:47:51;;;;;;;;;27.25;26.00;;;;;6.56;70.44;101966.22;5038973;28;45300;-70
2023/01/31 07:50:17;;;;;;;;;27.25;25.00;;;;;6.60;70.31;101969.94;5037758;28;45543;-70
2023/01/31 07:52:43;;;;;;;;;28.25;25.00;;;;;6.62;70.20;101969.25;5038740;28;45742;-71
2023/01/31 07:55:08;;;;;;;;;46.50;39.75;;;;;6.60;70.10;101964.75;5020552;28;45605;-70
2023/01/31 07:57:36;;;;;;;;;85.33;69.00;;;;;6.70;69.50;101975.88;5037191;28;45459;-71
2023/01/31 08:03:31;;;;;;;;;35.25;29.00;;;;;6.74;69.79;101975.31;5014763;28;45594;-72
2023/01/31 08:05:34;;;;;;;;;28.25;24.75;;;;;6.68;69.48;101956.69;5038446;28;45502;-72
2023/01/31 08:08:09;;;;;;;;;11.00;7.75;;;;;6.85;69.44;101985.53;5036853;28;46184;-71
2023/01/31 08:10:35;;;;;;;;;12.25;8.75;;;;;6.95;69.23;101991.44;5038460;28;45352;-71
2023/01/31 08:13:00;;;;;;;;;44.00;40.00;;;;;7.07;68.40;101990.47;5038692;28;45438;-71
2023/01/31 08:15:26;;;;;;;;;40.50;37.25;;;;;7.16;67.95;101983.28;5038676;28;45305;-72
2023/01/31 08:17:51;;;;;;;;;47.25;39.50;;;;;7.36;67.80;102000.19;5037448;28;45619;-71
2023/01/31 08:20:18;;;;;;;;;48.25;42.25;;;;;7.52;68.19;102000.44;5037871;28;45482;-71
2023/01/31 08:22:43;;;;;;;;;66.00;51.50;;;;;7.71;67.79;101991.22;5038255;28;45387;-71
2023/01/31 08:25:09;;;;;;;;;37.25;36.25;;;;;7.93;67.93;101990.88;5012771;28;45479;-71
2023/01/31 08:27:35;;;;;;;;;37.00;33.00;;;;;8.00;67.91;101990.47;5038798;28;45828;-71
2023/01/31 08:30:04;;;;;;;;;31.25;28.25;;;;;8.11;67.40;101994.66;5039570;28;45464;-72
2023/01/31 08:32:31;;;;;;;;;40.00;36.00;;;;;8.26;66.76;101999.94;5038511;28;45425;-72
2023/01/31 08:34:57;;;;;;;;;40.50;35.75;;;;;8.37;66.31;102008.41;5004128;28;45484;-72
2023/01/31 08:37:26;;;;;;;;;38.25;33.00;;;;;8.31;65.19;101981.97;5040436;28;45266;-73
2023/01/31 08:39:52;;;;;;;;;29.00;26.75;;;;;8.50;64.32;102011.00;5039633;28;45510;-72
2023/01/31 08:42:17;;;;;;;;;23.50;20.25;;;;;8.58;63.34;102001.06;5039279;28;45408;-72
2023/01/31 08:44:43;;;;;;;;;29.75;26.00;;;;;8.63;64.24;101981.38;5038326;28;45309;-71
2023/01/31 08:47:08;;;;;;;;;26.75;26.00;;;;;9.12;62.67;102010.38;5039295;28;46104;-72
2023/01/31 08:49:35;;;;;;;;;48.00;41.00;;;;;9.18;61.73;101959.44;5038756;28;45258;-71
2023/01/31 08:52:01;;;;;;;;;14.25;14.00;;;;;8.70;59.60;101871.53;5030255;28;45360;-71
2023/01/31 08:54:32;;;;;;;;;13.75;12.50;;;;;9.25;59.74;101983.34;5040003;28;45570;-72
2023/01/31 08:56:57;;;;;;;;;12.00;12.00;;;;;9.54;60.59;102003.25;5032566;28;46050;-71
2023/01/31 08:59:23;;;;;;;;;21.75;19.75;;;;;9.60;59.50;102004.44;5037506;28;45617;-72
2023/01/31 09:01:48;;;;;;;;;24.75;22.00;;;;;9.44;59.94;101987.91;5038478;28;45454;-71
2023/01/31 09:04:14;;;;;;;;;32.50;30.00;;;;;10.46;58.67;102001.41;5029510;28;45312;-71
2023/01/31 09:06:39;;;;;;;;;25.00;23.00;;;;;10.35;56.79;101957.31;5019752;28;45719;-71
2023/01/31 09:09:05;;;;;;;;;19.50;15.00;;;;;10.47;58.36;101987.53;5036080;28;45455;-72
2023/01/31 09:11:31;;;;;;;;;16.25;15.75;;;;;10.39;57.45;102005.41;5039603;28;45265;-71
2023/01/31 09:13:56;;;;;;;;;17.75;15.25;;;;;10.39;58.25;102012.34;5039663;28;45467;-71
2023/01/31 09:16:22;;;;;;;;;11.50;11.50;;;;;11.12;56.93;102011.00;5038791;28;45558;-72
2023/01/31 09:18:55;;;;;;;;;5.50;5.00;;;;;12.08;54.69;101985.16;5038550;28;45392;-72
2023/01/31 09:21:29;;;;;;;;;12.00;11.00;;;;;13.25;53.23;101987.72;5037582;28;45367;-72
2023/01/31 09:23:57;;;;;;;;;24.75;23.00;;;;;14.53;50.58;101984.88;5038047;28;45319;-72
2023/01/31 09:26:22;;;;;;;;;55.25;44.50;;;;;15.32;47.45;101978.03;5037978;28;45438;-72
2023/01/31 09:28:49;;;;;;;;;38.75;30.75;;;;;15.92;46.42;101982.63;5022679;28;45309;-72
2023/01/31 09:31:17;;;;;;;;;62.25;48.50;;;;;16.35;45.38;101988.28;5011630;28;45429;-72
2023/01/31 09:33:43;;;;;;;;;24.25;23.25;;;;;16.76;44.53;101986.81;5037033;28;45312;-72
2023/01/31 09:36:14;;;;;;;;;36.75;31.75;;;;;17.10;43.76;101980.72;5036811;28;46166;-72
2023/01/31 09:38:41;;;;;;;;;9.33;9.33;;;;;17.32;43.34;101980.41;5036981;28;45415;-72
2023/01/31 09:41:24;;;;;;;;;5.00;4.00;;;;;17.29;43.16;101982.13;5037143;28;45399;-72
2023/01/31 09:44:10;;;;;;;;;6.00;5.00;;;;;17.55;43.13;101971.31;5036731;28;45489;-71
2023/01/31 09:46:43;;;;;;;;;4.67;4.00;;;;;17.72;42.25;101984.91;5035541;28;45584;-71
2023/01/31 09:49:19;;;;;;;;;5.00;5.00;;;;;17.74;42.35;101977.00;5037659;28;45511;-71
2023/01/31 09:51:51;;;;;;;;;5.00;5.00;;;;;17.85;41.79;101987.00;5035595;28;45576;-72
2023/01/31 09:54:27;;;;;;;;;3.00;3.00;;;;;17.60;42.25;101990.78;5037274;28;45493;-72
2023/01/31 09:57:17;;;;;;;;;3.67;3.00;;;;;17.44;42.65;101984.22;5028327;28;46306;-71
2023/01/31 10:00:09;;;;;;;;;4.67;4.00;;;;;17.33;43.06;101991.00;5036258;28;45473;-71
2023/01/31 10:02:59;;;;;;;;;3.00;3.00;;;;;17.34;42.25;101987.50;5037108;28;45495;-72
2023/01/31 10:05:41;;;;;;;;;5.00;5.00;;;;;17.19;42.98;101987.09;5036216;28;45384;-72
2023/01/31 10:08:32;;;;;;;;;6.00;3.00;;;;;16.91;43.06;101999.59;5016534;28;45444;-72
2023/01/31 10:11:05;;;;;;;;;5.33;5.00;;;;;16.59;43.48;101993.38;5017202;28;45448;-71
2023/01/31 10:13:48;;;;;;;;;5.33;5.33;;;;;16.36;43.66;101990.09;5022381;28;45452;-72
2023/01/31 10:16:37;;;;;;;;;2.33;2.33;;;;;16.44;43.13;102000.00;5036954;28;45585;-72
2023/01/31 10:19:14;;;;;;;;;4.00;4.00;;;;;16.42;43.35;101996.44;5036817;28;46391;-72
2023/01/31 10:21:45;;;;;;;;;4.00;4.00;;;;;16.47;43.55;102005.38;5036773;28;45353;-72
2023/01/31 10:24:35;;;;;;;;;6.00;4.00;;;;;16.61;43.20;101982.03;5037344;28;45518;-72
2023/01/31 10:27:10;;;;;;;;;5.00;4.67;;;;;15.56;43.39;101793.59;5036045;28;45570;-72
2023/01/31 10:29:44;;;;;;;;;4.67;4.67;;;;;16.66;43.36;102000.63;5037207;28;45513;-72
2023/01/31 10:32:38;;;;;;;;;14.67;12.33;;;;;16.63;42.78;102004.06;5036968;28;45353;-72
2023/01/31 10:35:17;;;;;;;;;13.67;13.33;;;;;16.80;43.48;101999.25;5032060;28;45512;-73
2023/01/31 10:37:49;;;;;;;;;29.25;26.25;;;;;16.86;42.26;101999.44;5017787;28;45488;-72
2023/01/31 10:40:21;;;;;;;;;10.00;9.33;;;;;16.72;42.22;101966.50;5017604;28;46043;-71
2023/01/31 10:42:59;;;;;;;;;10.33;7.33;;;;;16.98;41.67;102004.16;5017255;28;45249;-71
2023/01/31 10:45:29;;;;;;;;;10.00;10.00;;;;;17.05;42.51;101994.66;5019408;28;45342;-71
2023/01/31 10:48:15;;;;;;;;;5.67;5.67;;;;;16.75;41.99;102003.53;5037441;28;45302;-71
2023/01/31 10:50:56;;;;;;;;;3.00;3.00;;;;;16.83;41.71;102007.31;5036943;28;45479;-72
2023/01/31 10:53:37;;;;;;;;;11.33;10.33;;;;;16.54;42.40;101997.63;5034272;28;45470;-71
2023/01/31 10:56:06;;;;;;;;;7.00;5.33;;;;;16.15;42.66;102006.16;5020280;28;45563;-71
2023/01/31 10:58:34;;;;;;;;;11.33;11.00;;;;;16.13;43.65;101998.19;5036724;28;45449;-72
2023/01/31 11:01:01;;;;;;;;;4.33;3.33;;;;;15.41;43.62;101993.25;5035653;28;46079;-72
2023/01/31 11:03:27;;;;;;;;;7.67;7.33;;;;;15.52;44.34;101998.00;5035036;28;45291;-72
2023/01/31 11:05:55;;;;;;;;;5.67;4.67;;;;;15.49;44.00;102004.91;5036850;28;45424;-73
2023/01/31 11:08:24;;;;;;;;;16.00;14.50;;;;;15.50;44.10;101998.81;5037572;28;45381;-71
2023/01/31 11:10:51;;;;;;;;;3.00;3.00;;;;;15.43;44.12;101992.44;5039934;28;46102;-71
2023/01/31 11:13:19;;;;;;;;;1.00;1.00;;;;;15.40;43.74;101996.69;5027568;28;45403;-71
2023/01/31 11:15:47;;;;;;;;;3.00;3.00;;;;;14.89;43.72;101972.19;5034813;28;45498;-71
2023/01/31 11:18:36;;;;;;;;;1.33;1.33;;;;;14.78;44.73;101988.44;5039694;28;45280;-71
2023/01/31 11:21:04;;;;;;;;;3.00;2.00;;;;;14.64;44.86;101975.69;5039219;28;46051;-71
2023/01/31 11:23:35;;;;;;;;;2.67;2.00;;;;;14.43;45.52;101981.00;5039008;28;45504;-72
2023/01/31 11:26:02;;;;;;;;;0.00;0.00;;;;;14.32;44.81;101977.09;5038723;28;45537;-72
2023/01/31 11:28:38;;;;;;;;;2.00;2.00;;;;;14.21;45.67;101981.94;5040468;28;45339;-72
2023/01/31 11:31:18;;;;;;;;;2.33;2.33;;;;;14.01;45.91;101941.78;5039658;28;45529;-72
2023/01/31 11:34:05;;;;;;;;;3.00;3.00;;;;;14.07;46.12;101975.28;5021835;28;45526;-72
2023/01/31 11:36:39;;;;;;;;;0.00;0.00;;;;;13.92;46.19;101968.56;5039016;28;45617;-73
2023/01/31 11:39:23;;;;;;;;;1.67;1.67;;;;;13.82;46.69;101962.91;5040997;28;45297;-72